sensor_id;sensor_type;location;lat;lon;timestamp;pressure;altitude;pressure_sealevel;temperature;humidity
49689;BME280;70518;51.400;7.428;2023-12-20T00:02:15;157376.44;;;13.25;100.00
49689;BME280;70518;51.400;7.428;2023-12-20T00:04:40;157377.75;;;13.26;100.00
49689;BME280;70518;51.400;7.428;2023-12-20T00:07:06;157376.44;;;13.25;100.00
49689;BME280;70518;51.400;7.428;2023-12-20T00:09:31;157293.72;;;12.93;100.00
49689;BME280;70518;51.400;7.428;2023-12-20T00:11:56;157353.19;;;13.16;100.00
49689;BME280;70518;51.400;7.428;2023-12-20T00:14:22;157341.59;;;13.12;100.00
49689;BME280;70518;51.400;7.428;2023-12-20T00:16:47;157340.28;;;13.11;100.00
49689;BME280;70518;51.400;7.428;2023-12-20T00:19:12;157335.13;;;13.09;100.00
49689;BME280;70518;51.400;7.428;2023-12-20T00:21:37;157329.88;;;13.07;100.00
49689;BME280;70518;51.400;7.428;2023-12-20T00:24:03;157327.31;;;13.06;100.00
49689;BME280;70518;51.400;7.428;2023-12-20T00:26:28;157319.56;;;13.03;100.00
49689;BME280;70518;51.400;7.428;2023-12-20T00:28:53;157333.84;;;13.09;100.00
49689;BME280;70518;51.400;7.428;2023-12-20T00:31:18;157341.59;;;13.12;100.00
49689;BME280;70518;51.400;7.428;2023-12-20T00:33:44;157344.13;;;13.13;100.00
49689;BME280;70518;51.400;7.428;2023-12-20T00:36:11;157346.72;;;13.14;100.00
49689;BME280;70518;51.400;7.428;2023-12-20T00:38:36;157348.03;;;13.14;100.00
49689;BME280;70518;51.400;7.428;2023-12-20T00:41:01;157349.34;;;13.15;100.00
49689;BME280;70518;51.400;7.428;2023-12-20T00:43:27;157351.88;;;13.16;100.00
49689;BME280;70518;51.400;7.428;2023-12-20T00:45:52;157351.88;;;13.16;100.00
49689;BME280;70518;51.400;7.428;2023-12-20T00:48:18;157335.13;;;13.09;100.00
49689;BME280;70518;51.400;7.428;2023-12-20T00:50:43;157322.13;;;13.04;100.00
49689;BME280;70518;51.400;7.428;2023-12-20T00:53:08;157344.13;;;13.13;100.00
49689;BME280;70518;51.400;7.428;2023-12-20T00:55:33;157323.44;;;13.05;100.00
49689;BME280;70518;51.400;7.428;2023-12-20T00:57:58;157322.13;;;13.04;100.00
49689;BME280;70518;51.400;7.428;2023-12-20T01:00:25;157293.72;;;12.93;100.00
49689;BME280;70518;51.400;7.428;2023-12-20T01:02:50;157271.78;;;12.85;100.00
49689;BME280;70518;51.400;7.428;2023-12-20T01:05:16;157274.38;;;12.86;100.00
49689;BME280;70518;51.400;7.428;2023-12-20T01:07:42;157264.03;;;12.81;100.00
49689;BME280;70518;51.400;7.428;2023-12-20T01:10:07;157247.22;;;12.75;100.00
49689;BME280;70518;51.400;7.428;2023-12-20T01:12:33;157240.78;;;12.72;100.00
49689;BME280;70518;51.400;7.428;2023-12-20T01:14:58;157236.88;;;12.71;100.00
49689;BME280;70518;51.400;7.428;2023-12-20T01:17:23;157199.41;;;12.56;100.00
49689;BME280;70518;51.400;7.428;2023-12-20T01:19:48;157205.91;;;12.59;100.00
49689;BME280;70518;51.400;7.428;2023-12-20T01:22:14;157196.88;;;12.55;100.00
49689;BME280;70518;51.400;7.428;2023-12-20T01:24:39;157191.66;;;12.53;100.00
49689;BME280;70518;51.400;7.428;2023-12-20T01:27:04;157198.16;;;12.56;99.16
49689;BME280;70518;51.400;7.428;2023-12-20T01:29:30;157178.78;;;12.48;99.28
49689;BME280;70518;51.400;7.428;2023-12-20T01:31:55;157185.22;;;12.51;99.56
49689;BME280;70518;51.400;7.428;2023-12-20T01:34:20;157185.22;;;12.51;99.15
49689;BME280;70518;51.400;7.428;2023-12-20T01:36:46;157186.53;;;12.51;99.07
49689;BME280;70518;51.400;7.428;2023-12-20T01:39:11;157183.91;;;12.50;98.83
49689;BME280;70518;51.400;7.428;2023-12-20T01:41:36;157180.06;;;12.49;99.04
49689;BME280;70518;51.400;7.428;2023-12-20T01:44:01;157164.56;;;12.43;98.48
49689;BME280;70518;51.400;7.428;2023-12-20T01:46:26;157163.28;;;12.42;98.46
49689;BME280;70518;51.400;7.428;2023-12-20T01:48:52;157155.53;;;12.39;98.61
49689;BME280;70518;51.400;7.428;2023-12-20T01:51:17;157140.03;;;12.33;98.90
49689;BME280;70518;51.400;7.428;2023-12-20T01:53:43;157141.34;;;12.34;99.31
49689;BME280;70518;51.400;7.428;2023-12-20T01:56:08;157152.97;;;12.38;98.83
49689;BME280;70518;51.400;7.428;2023-12-20T01:58:35;157156.81;;;12.40;98.48
49689;BME280;70518;51.400;7.428;2023-12-20T02:01:03;157159.44;;;12.41;97.93
49689;BME280;70518;51.400;7.428;2023-12-20T02:03:28;157147.78;;;12.36;97.34
49689;BME280;70518;51.400;7.428;2023-12-20T02:05:53;157134.88;;;12.31;97.01
49689;BME280;70518;51.400;7.428;2023-12-20T02:08:18;157140.03;;;12.33;96.72
49689;BME280;70518;51.400;7.428;2023-12-20T02:10:44;157145.22;;;12.35;96.94
49689;BME280;70518;51.400;7.428;2023-12-20T02:13:09;157163.28;;;12.42;95.66
49689;BME280;70518;51.400;7.428;2023-12-20T02:15:34;157155.53;;;12.39;95.94
49689;BME280;70518;51.400;7.428;2023-12-20T02:18:02;157136.19;;;12.32;96.36
49689;BME280;70518;51.400;7.428;2023-12-20T02:20:27;157125.84;;;12.27;95.09
49689;BME280;70518;51.400;7.428;2023-12-20T02:22:52;157116.78;;;12.24;94.28
49689;BME280;70518;51.400;7.428;2023-12-20T02:25:17;157112.94;;;12.22;94.58
49689;BME280;70518;51.400;7.428;2023-12-20T02:27:42;157106.50;;;12.20;93.10
49689;BME280;70518;51.400;7.428;2023-12-20T02:30:09;157097.44;;;12.16;92.83
49689;BME280;70518;51.400;7.428;2023-12-20T02:32:35;157101.28;;;12.18;92.72
49689;BME280;70518;51.400;7.428;2023-12-20T02:35:00;157107.75;;;12.20;92.64
49689;BME280;70518;51.400;7.428;2023-12-20T02:37:25;157121.97;;;12.26;92.53
49689;BME280;70518;51.400;7.428;2023-12-20T02:39:50;157123.22;;;12.26;92.84
49689;BME280;70518;51.400;7.428;2023-12-20T02:42:16;157130.97;;;12.30;93.03
49689;BME280;70518;51.400;7.428;2023-12-20T02:44:41;157125.84;;;12.27;92.73
49689;BME280;70518;51.400;7.428;2023-12-20T02:47:06;157124.53;;;12.27;93.02
49689;BME280;70518;51.400;7.428;2023-12-20T02:49:31;157128.44;;;12.29;93.02
49689;BME280;70518;51.400;7.428;2023-12-20T02:51:56;157128.44;;;12.29;92.88
49689;BME280;70518;51.400;7.428;2023-12-20T02:54:22;157123.22;;;12.26;92.89
49689;BME280;70518;51.400;7.428;2023-12-20T02:56:47;157098.75;;;12.17;92.75
49689;BME280;70518;51.400;7.428;2023-12-20T02:59:12;157107.75;;;12.20;93.10
49689;BME280;70518;51.400;7.428;2023-12-20T03:01:46;157094.84;;;12.15;93.17
49689;BME280;70518;51.400;7.428;2023-12-20T03:04:12;157106.50;;;12.20;92.57
49689;BME280;70518;51.400;7.428;2023-12-20T03:06:37;157127.13;;;12.28;91.96
49689;BME280;70518;51.400;7.428;2023-12-20T03:09:03;157105.19;;;12.19;92.03
49689;BME280;70518;51.400;7.428;2023-12-20T03:11:28;157087.09;;;12.12;92.46
49689;BME280;70518;51.400;7.428;2023-12-20T03:13:53;157053.56;;;11.99;92.80
49689;BME280;70518;51.400;7.428;2023-12-20T03:16:19;157075.50;;;12.08;92.30
49689;BME280;70518;51.400;7.428;2023-12-20T03:18:44;157088.41;;;12.13;92.17
49689;BME280;70518;51.400;7.428;2023-12-20T03:21:09;157069.06;;;12.05;92.55
49689;BME280;70518;51.400;7.428;2023-12-20T03:23:34;157061.31;;;12.02;92.32
49689;BME280;70518;51.400;7.428;2023-12-20T03:25:59;157062.56;;;12.03;92.77
49689;BME280;70518;51.400;7.428;2023-12-20T03:28:25;157066.44;;;12.04;92.41
49689;BME280;70518;51.400;7.428;2023-12-20T03:30:51;157065.16;;;12.04;92.03
49689;BME280;70518;51.400;7.428;2023-12-20T03:33:16;157057.41;;;12.01;91.32
49689;BME280;70518;51.400;7.428;2023-12-20T03:35:41;157049.66;;;11.98;91.22
49689;BME280;70518;51.400;7.428;2023-12-20T03:38:06;157050.97;;;11.98;91.10
49689;BME280;70518;51.400;7.428;2023-12-20T03:40:32;157023.88;;;11.88;91.23
49689;BME280;70518;51.400;7.428;2023-12-20T03:42:57;157043.22;;;11.95;90.74
49689;BME280;70518;51.400;7.428;2023-12-20T03:45:22;157045.81;;;11.96;90.27
49689;BME280;70518;51.400;7.428;2023-12-20T03:47:47;157045.81;;;11.96;90.15
49689;BME280;70518;51.400;7.428;2023-12-20T03:50:13;157056.09;;;12.00;89.99
49689;BME280;70518;51.400;7.428;2023-12-20T03:52:38;157065.16;;;12.04;89.82
49689;BME280;70518;51.400;7.428;2023-12-20T03:55:04;157057.41;;;12.01;89.42
49689;BME280;70518;51.400;7.428;2023-12-20T03:57:29;157043.22;;;11.95;89.75
49689;BME280;70518;51.400;7.428;2023-12-20T03:59:54;157052.25;;;11.99;89.23
49689;BME280;70518;51.400;7.428;2023-12-20T04:02:19;157057.41;;;12.01;89.22
49689;BME280;70518;51.400;7.428;2023-12-20T04:04:45;157062.56;;;12.03;88.76
49689;BME280;70518;51.400;7.428;2023-12-20T04:07:10;157065.16;;;12.04;88.85
49689;BME280;70518;51.400;7.428;2023-12-20T04:09:35;157057.41;;;12.01;89.00
49689;BME280;70518;51.400;7.428;2023-12-20T04:12:00;157050.97;;;11.98;88.98
49689;BME280;70518;51.400;7.428;2023-12-20T04:14:26;157052.25;;;11.99;88.91
49689;BME280;70518;51.400;7.428;2023-12-20T04:16:51;157026.44;;;11.89;89.92
49689;BME280;70518;51.400;7.428;2023-12-20T04:19:16;157045.81;;;11.96;89.09
49689;BME280;70518;51.400;7.428;2023-12-20T04:21:41;157030.31;;;11.90;89.51
49689;BME280;70518;51.400;7.428;2023-12-20T04:24:07;157019.97;;;11.86;90.03
49689;BME280;70518;51.400;7.428;2023-12-20T04:26:32;156994.16;;;11.76;89.99
49689;BME280;70518;51.400;7.428;2023-12-20T04:28:57;156951.53;;;11.59;90.29
49689;BME280;70518;51.400;7.428;2023-12-20T04:31:22;156960.56;;;11.63;90.75
49689;BME280;70518;51.400;7.428;2023-12-20T04:33:47;156950.22;;;11.59;91.44
49689;BME280;70518;51.400;7.428;2023-12-20T04:36:12;156938.63;;;11.54;91.36
49689;BME280;70518;51.400;7.428;2023-12-20T04:38:38;156951.53;;;11.59;91.83
49689;BME280;70518;51.400;7.428;2023-12-20T04:41:03;156954.13;;;11.60;91.76
49689;BME280;70518;51.400;7.428;2023-12-20T04:43:28;156942.47;;;11.56;92.21
49689;BME280;70518;51.400;7.428;2023-12-20T04:45:54;156911.50;;;11.44;93.16
49689;BME280;70518;51.400;7.428;2023-12-20T04:48:19;156919.25;;;11.47;93.45
49689;BME280;70518;51.400;7.428;2023-12-20T04:50:45;156921.84;;;11.48;93.08
49689;BME280;70518;51.400;7.428;2023-12-20T04:53:10;156932.19;;;11.52;92.99
49689;BME280;70518;51.400;7.428;2023-12-20T04:55:35;156925.69;;;11.49;93.05
49689;BME280;70518;51.400;7.428;2023-12-20T04:58:01;156910.22;;;11.43;93.52
49689;BME280;70518;51.400;7.428;2023-12-20T05:00:26;156905.06;;;11.41;93.28
49689;BME280;70518;51.400;7.428;2023-12-20T05:02:51;156884.44;;;11.33;92.93
49689;BME280;70518;51.400;7.428;2023-12-20T05:05:17;156874.09;;;11.29;93.59
49689;BME280;70518;51.400;7.428;2023-12-20T05:07:43;156863.81;;;11.25;93.67
49689;BME280;70518;51.400;7.428;2023-12-20T05:10:08;156857.31;;;11.23;94.03
49689;BME280;70518;51.400;7.428;2023-12-20T05:12:34;156876.69;;;11.30;93.66
49689;BME280;70518;51.400;7.428;2023-12-20T05:14:59;156866.34;;;11.26;93.35
49689;BME280;70518;51.400;7.428;2023-12-20T05:17:24;156823.78;;;11.09;93.64
49689;BME280;70518;51.400;7.428;2023-12-20T05:19:50;156837.97;;;11.15;94.00
49689;BME280;70518;51.400;7.428;2023-12-20T05:22:15;156852.16;;;11.21;93.35
49689;BME280;70518;51.400;7.428;2023-12-20T05:24:40;156853.47;;;11.21;94.06
49689;BME280;70518;51.400;7.428;2023-12-20T05:27:05;156854.75;;;11.22;93.95
49689;BME280;70518;51.400;7.428;2023-12-20T05:29:30;156854.75;;;11.22;93.47
49689;BME280;70518;51.400;7.428;2023-12-20T05:31:57;156865.03;;;11.26;93.27
49689;BME280;70518;51.400;7.428;2023-12-20T05:34:23;156856.06;;;11.22;93.66
49689;BME280;70518;51.400;7.428;2023-12-20T05:36:48;156844.41;;;11.18;93.77
49689;BME280;70518;51.400;7.428;2023-12-20T05:39:13;156862.50;;;11.25;93.67
49689;BME280;70518;51.400;7.428;2023-12-20T05:41:38;156863.81;;;11.25;93.69
49689;BME280;70518;51.400;7.428;2023-12-20T05:44:03;156861.19;;;11.24;93.78
49689;BME280;70518;51.400;7.428;2023-12-20T05:46:29;156866.34;;;11.26;93.55
49689;BME280;70518;51.400;7.428;2023-12-20T05:48:54;156854.75;;;11.22;93.74
49689;BME280;70518;51.400;7.428;2023-12-20T05:51:19;156866.34;;;11.26;93.05
49689;BME280;70518;51.400;7.428;2023-12-20T05:53:44;156859.91;;;11.24;93.02
49689;BME280;70518;51.400;7.428;2023-12-20T05:56:10;156865.03;;;11.26;92.75
49689;BME280;70518;51.400;7.428;2023-12-20T05:58:35;156852.16;;;11.21;92.39
49689;BME280;70518;51.400;7.428;2023-12-20T06:01:01;156832.84;;;11.13;92.93
49689;BME280;70518;51.400;7.428;2023-12-20T06:03:26;156837.97;;;11.15;93.25
49689;BME280;70518;51.400;7.428;2023-12-20T06:05:51;156832.84;;;11.13;93.33
49689;BME280;70518;51.400;7.428;2023-12-20T06:08:16;156849.56;;;11.20;92.69
49689;BME280;70518;51.400;7.428;2023-12-20T06:10:42;156867.66;;;11.27;92.02
49689;BME280;70518;51.400;7.428;2023-12-20T06:13:07;156835.38;;;11.14;93.00
49689;BME280;70518;51.400;7.428;2023-12-20T06:15:32;156822.50;;;11.09;93.69
49689;BME280;70518;51.400;7.428;2023-12-20T06:17:58;156823.78;;;11.09;93.66
49689;BME280;70518;51.400;7.428;2023-12-20T06:20:23;156831.53;;;11.12;93.13
49689;BME280;70518;51.400;7.428;2023-12-20T06:22:48;156807.00;;;11.03;93.48
49689;BME280;70518;51.400;7.428;2023-12-20T06:25:13;156826.38;;;11.10;93.13
49689;BME280;70518;51.400;7.428;2023-12-20T06:27:39;156852.16;;;11.21;92.36
49689;BME280;70518;51.400;7.428;2023-12-20T06:30:06;156888.28;;;11.35;91.41
49689;BME280;70518;51.400;7.428;2023-12-20T06:32:31;156888.28;;;11.35;91.88
49689;BME280;70518;51.400;7.428;2023-12-20T06:34:56;156887.03;;;11.34;92.04
49689;BME280;70518;51.400;7.428;2023-12-20T06:37:22;156903.75;;;11.41;91.69
49689;BME280;70518;51.400;7.428;2023-12-20T06:39:47;156901.22;;;11.40;91.61
49689;BME280;70518;51.400;7.428;2023-12-20T06:42:12;156868.94;;;11.27;92.13
49689;BME280;70518;51.400;7.428;2023-12-20T06:44:38;156849.56;;;11.20;92.20
49689;BME280;70518;51.400;7.428;2023-12-20T06:47:03;156822.50;;;11.09;93.47
49689;BME280;70518;51.400;7.428;2023-12-20T06:49:29;156857.31;;;11.23;92.72
49689;BME280;70518;51.400;7.428;2023-12-20T06:51:54;156853.47;;;11.21;92.26
49689;BME280;70518;51.400;7.428;2023-12-20T06:54:19;156868.94;;;11.27;91.71
49689;BME280;70518;51.400;7.428;2023-12-20T06:56:45;156884.44;;;11.33;91.64
49689;BME280;70518;51.400;7.428;2023-12-20T06:59:10;156889.56;;;11.35;90.97
49689;BME280;70518;51.400;7.428;2023-12-20T07:01:35;156866.34;;;11.26;91.66
49689;BME280;70518;51.400;7.428;2023-12-20T07:04:00;156885.72;;;11.34;91.35
49689;BME280;70518;51.400;7.428;2023-12-20T07:06:25;156881.81;;;11.32;91.35
49689;BME280;70518;51.400;7.428;2023-12-20T07:08:51;156883.13;;;11.33;91.56
49689;BME280;70518;51.400;7.428;2023-12-20T07:11:17;156890.88;;;11.36;91.34
49689;BME280;70518;51.400;7.428;2023-12-20T07:13:42;156881.81;;;11.32;91.37
49689;BME280;70518;51.400;7.428;2023-12-20T07:16:07;156879.28;;;11.31;91.65
49689;BME280;70518;51.400;7.428;2023-12-20T07:18:32;156898.63;;;11.39;90.67
49689;BME280;70518;51.400;7.428;2023-12-20T07:20:57;156885.72;;;11.34;90.81
49689;BME280;70518;51.400;7.428;2023-12-20T07:23:23;156872.78;;;11.29;90.96
49689;BME280;70518;51.400;7.428;2023-12-20T07:25:48;156863.81;;;11.25;90.87
49689;BME280;70518;51.400;7.428;2023-12-20T07:28:13;156866.34;;;11.26;90.32
49689;BME280;70518;51.400;7.428;2023-12-20T07:30:39;156867.66;;;11.27;90.16
49689;BME280;70518;51.400;7.428;2023-12-20T07:33:04;156844.41;;;11.18;89.74
49689;BME280;70518;51.400;7.428;2023-12-20T07:35:29;156847.00;;;11.19;90.25
49689;BME280;70518;51.400;7.428;2023-12-20T07:37:54;156870.25;;;11.28;89.91
49689;BME280;70518;51.400;7.428;2023-12-20T07:40:20;156852.16;;;11.21;89.83
49689;BME280;70518;51.400;7.428;2023-12-20T07:42:45;156840.56;;;11.16;89.38
49689;BME280;70518;51.400;7.428;2023-12-20T07:45:10;156853.47;;;11.21;88.27
49689;BME280;70518;51.400;7.428;2023-12-20T07:47:38;156831.53;;;11.12;88.62
49689;BME280;70518;51.400;7.428;2023-12-20T07:50:04;156832.84;;;11.13;88.16
49689;BME280;70518;51.400;7.428;2023-12-20T07:52:29;156835.38;;;11.14;88.61
49689;BME280;70518;51.400;7.428;2023-12-20T07:54:54;156816.03;;;11.06;88.60
49689;BME280;70518;51.400;7.428;2023-12-20T07:57:20;156879.28;;;11.31;89.65
49689;BME280;70518;51.400;7.428;2023-12-20T07:59:45;157008.38;;;11.82;100.00
49689;BME280;70518;51.400;7.428;2023-12-20T08:02:10;157094.84;;;12.15;100.00
49689;BME280;70518;51.400;7.428;2023-12-20T08:04:36;157078.06;;;12.09;93.17
49689;BME280;70518;51.400;7.428;2023-12-20T08:07:01;157041.91;;;11.95;89.88
49689;BME280;70518;51.400;7.428;2023-12-20T08:09:27;157021.28;;;11.87;88.90
49689;BME280;70518;51.400;7.428;2023-12-20T08:11:52;156987.69;;;11.74;88.21
49689;BME280;70518;51.400;7.428;2023-12-20T08:14:17;156970.84;;;11.67;87.59
49689;BME280;70518;51.400;7.428;2023-12-20T08:16:42;156955.41;;;11.61;88.04
49689;BME280;70518;51.400;7.428;2023-12-20T08:19:07;156976.06;;;11.69;88.01
49689;BME280;70518;51.400;7.428;2023-12-20T08:21:33;156954.13;;;11.60;87.71
49689;BME280;70518;51.400;7.428;2023-12-20T08:23:58;156961.88;;;11.63;87.75
49689;BME280;70518;51.400;7.428;2023-12-20T08:26:25;156968.31;;;11.66;87.26
49689;BME280;70518;51.400;7.428;2023-12-20T08:28:50;156939.94;;;11.55;87.99
49689;BME280;70518;51.400;7.428;2023-12-20T08:31:16;156952.81;;;11.60;87.90
49689;BME280;70518;51.400;7.428;2023-12-20T08:33:43;156974.75;;;11.68;89.78
49689;BME280;70518;51.400;7.428;2023-12-20T08:36:08;156954.13;;;11.60;89.36
49689;BME280;70518;51.400;7.428;2023-12-20T08:38:33;156965.72;;;11.65;88.57
49689;BME280;70518;51.400;7.428;2023-12-20T08:40:59;156954.13;;;11.60;88.23
49689;BME280;70518;51.400;7.428;2023-12-20T08:43:24;156954.13;;;11.60;88.36
49689;BME280;70518;51.400;7.428;2023-12-20T08:45:49;156932.19;;;11.52;88.26
49689;BME280;70518;51.400;7.428;2023-12-20T08:48:14;156930.88;;;11.51;88.17
49689;BME280;70518;51.400;7.428;2023-12-20T08:50:39;156986.41;;;11.73;87.13
49689;BME280;70518;51.400;7.428;2023-12-20T08:53:05;156987.69;;;11.74;86.60
49689;BME280;70518;51.400;7.428;2023-12-20T08:55:30;156990.28;;;11.75;86.86
49689;BME280;70518;51.400;7.428;2023-12-20T08:57:56;156982.56;;;11.72;86.89
49689;BME280;70518;51.400;7.428;2023-12-20T09:00:21;156977.41;;;11.69;86.98
49689;BME280;70518;51.400;7.428;2023-12-20T09:02:49;156964.41;;;11.64;87.53
49689;BME280;70518;51.400;7.428;2023-12-20T09:05:14;156982.56;;;11.72;87.74
49689;BME280;70518;51.400;7.428;2023-12-20T09:07:39;156977.41;;;11.69;87.75
49689;BME280;70518;51.400;7.428;2023-12-20T09:10:05;156969.59;;;11.66;87.53
49689;BME280;70518;51.400;7.428;2023-12-20T09:12:30;156995.44;;;11.77;87.09
49689;BME280;70518;51.400;7.428;2023-12-20T09:14:55;156954.13;;;11.60;87.74
49689;BME280;70518;51.400;7.428;2023-12-20T09:17:20;156974.75;;;11.68;87.40
49689;BME280;70518;51.400;7.428;2023-12-20T09:19:47;156983.84;;;11.72;87.39
49689;BME280;70518;51.400;7.428;2023-12-20T09:22:13;156977.41;;;11.69;87.34
49689;BME280;70518;51.400;7.428;2023-12-20T09:24:38;156983.84;;;11.72;87.41
49689;BME280;70518;51.400;7.428;2023-12-20T09:27:04;156969.59;;;11.66;87.77
49689;BME280;70518;51.400;7.428;2023-12-20T09:29:30;156957.97;;;11.62;87.40
49689;BME280;70518;51.400;7.428;2023-12-20T09:31:55;156987.69;;;11.74;86.68
49689;BME280;70518;51.400;7.428;2023-12-20T09:34:22;157014.84;;;11.84;86.25
49689;BME280;70518;51.400;7.428;2023-12-20T09:36:47;157000.63;;;11.79;86.46
49689;BME280;70518;51.400;7.428;2023-12-20T09:39:18;157003.19;;;11.80;86.47
49689;BME280;70518;51.400;7.428;2023-12-20T09:44:21;156996.75;;;11.77;86.54
49689;BME280;70518;51.400;7.428;2023-12-20T09:46:48;156985.16;;;11.73;86.83
49689;BME280;70518;51.400;7.428;2023-12-20T09:49:14;157013.53;;;11.84;86.15
49689;BME280;70518;51.400;7.428;2023-12-20T09:51:42;156996.75;;;11.77;86.34
49689;BME280;70518;51.400;7.428;2023-12-20T09:54:07;156996.75;;;11.77;85.85
49689;BME280;70518;51.400;7.428;2023-12-20T09:56:32;157010.94;;;11.83;85.76
49689;BME280;70518;51.400;7.428;2023-12-20T09:58:59;157000.63;;;11.79;85.72
49689;BME280;70518;51.400;7.428;2023-12-20T10:01:24;156991.59;;;11.75;86.17
49689;BME280;70518;51.400;7.428;2023-12-20T10:03:50;156987.69;;;11.74;85.95
49689;BME280;70518;51.400;7.428;2023-12-20T10:06:16;156987.69;;;11.74;85.51
49689;BME280;70518;51.400;7.428;2023-12-20T10:08:41;156986.41;;;11.73;86.42
49689;BME280;70518;51.400;7.428;2023-12-20T10:11:06;156995.44;;;11.77;85.65
49689;BME280;70518;51.400;7.428;2023-12-20T10:13:32;157019.97;;;11.86;85.64
49689;BME280;70518;51.400;7.428;2023-12-20T10:15:57;157038.06;;;11.93;85.46
49689;BME280;70518;51.400;7.428;2023-12-20T10:18:22;157007.09;;;11.81;85.87
49689;BME280;70518;51.400;7.428;2023-12-20T10:20:48;156983.84;;;11.72;85.84
49689;BME280;70518;51.400;7.428;2023-12-20T10:23:13;156973.47;;;11.68;86.30
49689;BME280;70518;51.400;7.428;2023-12-20T10:25:40;157016.13;;;11.85;85.32
49689;BME280;70518;51.400;7.428;2023-12-20T10:28:13;157027.72;;;11.89;85.08
49689;BME280;70518;51.400;7.428;2023-12-20T10:30:39;157012.22;;;11.83;85.53
49689;BME280;70518;51.400;7.428;2023-12-20T10:33:07;157018.69;;;11.86;84.98
49689;BME280;70518;51.400;7.428;2023-12-20T10:35:33;157025.13;;;11.88;85.33
49689;BME280;70518;51.400;7.428;2023-12-20T10:37:58;157019.97;;;11.86;85.89
49689;BME280;70518;51.400;7.428;2023-12-20T10:40:28;157031.56;;;11.91;85.44
49689;BME280;70518;51.400;7.428;2023-12-20T10:42:54;157026.44;;;11.89;85.74
49689;BME280;70518;51.400;7.428;2023-12-20T10:45:20;157030.31;;;11.90;85.58
49689;BME280;70518;51.400;7.428;2023-12-20T10:47:46;157025.13;;;11.88;85.77
49689;BME280;70518;51.400;7.428;2023-12-20T10:50:12;157048.38;;;11.97;85.32
49689;BME280;70518;51.400;7.428;2023-12-20T10:52:37;157048.38;;;11.97;85.52
49689;BME280;70518;51.400;7.428;2023-12-20T10:55:02;157057.41;;;12.01;85.46
49689;BME280;70518;51.400;7.428;2023-12-20T10:57:28;157032.88;;;11.91;86.00
49689;BME280;70518;51.400;7.428;2023-12-20T10:59:54;157031.56;;;11.91;86.44
49689;BME280;70518;51.400;7.428;2023-12-20T11:02:21;157029.03;;;11.90;86.24
49689;BME280;70518;51.400;7.428;2023-12-20T11:04:49;157021.28;;;11.87;86.88
49689;BME280;70518;51.400;7.428;2023-12-20T11:09:43;157026.44;;;11.89;86.18
49689;BME280;70518;51.400;7.428;2023-12-20T11:12:15;156998.03;;;11.78;87.15
49689;BME280;70518;51.400;7.428;2023-12-20T11:14:49;156992.91;;;11.76;87.27
49689;BME280;70518;51.400;7.428;2023-12-20T11:17:15;157014.84;;;11.84;87.52
49689;BME280;70518;51.400;7.428;2023-12-20T11:20:24;157031.56;;;11.91;87.03
49689;BME280;70518;51.400;7.428;2023-12-20T11:22:30;157027.72;;;11.89;87.36
49689;BME280;70518;51.400;7.428;2023-12-20T11:25:15;157030.31;;;11.90;87.87
49689;BME280;70518;51.400;7.428;2023-12-20T11:27:41;157034.16;;;11.92;87.88
49689;BME280;70518;51.400;7.428;2023-12-20T11:30:07;157027.72;;;11.89;87.85
49689;BME280;70518;51.400;7.428;2023-12-20T11:32:34;157019.97;;;11.86;88.08
49689;BME280;70518;51.400;7.428;2023-12-20T11:37:32;157021.28;;;11.87;87.81
49689;BME280;70518;51.400;7.428;2023-12-20T11:40:00;157036.78;;;11.93;87.78
49689;BME280;70518;51.400;7.428;2023-12-20T11:42:25;157038.06;;;11.93;87.46
49689;BME280;70518;51.400;7.428;2023-12-20T11:44:51;157026.44;;;11.89;88.30
49689;BME280;70518;51.400;7.428;2023-12-20T11:47:16;157010.94;;;11.83;89.63
49689;BME280;70518;51.400;7.428;2023-12-20T11:49:44;157016.13;;;11.85;88.91
49689;BME280;70518;51.400;7.428;2023-12-20T11:52:11;157000.63;;;11.79;89.43
49689;BME280;70518;51.400;7.428;2023-12-20T11:54:36;157018.69;;;11.86;89.25
49689;BME280;70518;51.400;7.428;2023-12-20T11:57:01;157035.47;;;11.92;89.07
49689;BME280;70518;51.400;7.428;2023-12-20T11:59:27;157047.06;;;11.97;89.14
49689;BME280;70518;51.400;7.428;2023-12-20T12:01:52;157049.66;;;11.98;89.38
49689;BME280;70518;51.400;7.428;2023-12-20T12:04:17;157049.66;;;11.98;89.38
49689;BME280;70518;51.400;7.428;2023-12-20T12:06:43;157041.91;;;11.95;89.21
49689;BME280;70518;51.400;7.428;2023-12-20T12:09:08;157060.00;;;12.02;89.60
49689;BME280;70518;51.400;7.428;2023-12-20T12:11:34;157052.25;;;11.99;89.77
49689;BME280;70518;51.400;7.428;2023-12-20T12:13:59;157052.25;;;11.99;90.02
49689;BME280;70518;51.400;7.428;2023-12-20T12:16:24;157039.31;;;11.94;89.91
49689;BME280;70518;51.400;7.428;2023-12-20T12:18:56;157056.09;;;12.00;90.09
49689;BME280;70518;51.400;7.428;2023-12-20T12:21:22;157054.81;;;12.00;89.80
49689;BME280;70518;51.400;7.428;2023-12-20T12:23:47;157061.31;;;12.02;89.72
49689;BME280;70518;51.400;7.428;2023-12-20T12:26:12;157063.84;;;12.03;90.32
49689;BME280;70518;51.400;7.428;2023-12-20T12:28:41;157057.41;;;12.01;90.55
49689;BME280;70518;51.400;7.428;2023-12-20T12:31:06;157063.84;;;12.03;91.01
49689;BME280;70518;51.400;7.428;2023-12-20T12:33:32;157067.75;;;12.05;91.10
49689;BME280;70518;51.400;7.428;2023-12-20T12:35:57;157058.72;;;12.01;91.38
49689;BME280;70518;51.400;7.428;2023-12-20T12:38:22;157061.31;;;12.02;91.89
49689;BME280;70518;51.400;7.428;2023-12-20T12:40:49;157069.06;;;12.05;92.05
49689;BME280;70518;51.400;7.428;2023-12-20T12:43:14;157076.81;;;12.08;91.42
49689;BME280;70518;51.400;7.428;2023-12-20T12:45:40;157079.34;;;12.09;91.76
49689;BME280;70518;51.400;7.428;2023-12-20T12:48:05;157067.75;;;12.05;91.74